Latest Coastal Weather Observations for Flinders Island Airport

IDT60701

Issued at 1:02 am EDT Friday 3 February 2023 (issued every 10 minutes, with the page automatically refreshed every 10 minutes)

About coastal observations | Map of coastal stations | Coastal observations for TAS | Marine services | Other Formats
Station Details ID: 099005 Name: FLINDERS ISLAND AIRPORT Lat: -40.09 Lon: 148.00 Height: 9.0 m
Data from the previous 72 hours. | See also: Recent months at Flinders Island Airport
Date/Time
EDT
Wind Sea
Height
m
Swell Vis
km
Cloud Weather Temp
°C
Press
MSL
hPa
Rain since
9am
mm
Dir  Spd
kts
Gust
kts
Height
m
Period
s
Dir
03/01:00am WNW 15 19 - - - - 10 Partly cloudy - 14.0 985.8 6.0
03/12:30am WNW 8 11 - - - - 10 Partly cloudy - 12.8 986.1 6.0
03/12:18am WNW 11 15 - - - - 10 Partly cloudy - 13.1 986.2 6.0
03/12:00am WSW 21 26 - - - - 10 Cloudy - 13.4 986.4 6.0
 
Date/Time
EDT
Wind Sea
Height
m
Swell Vis
km
Cloud Weather Temp
°C
Press
MSL
hPa
Rain since
9am
mm
Dir  Spd
kts
Gust
kts
Height
m
Period
s
Dir
02/11:53pm W 16 26 - - - - 10 Partly cloudy - 13.4 986.4 6.0
02/11:30pm WNW 14 18 - - - - 10 Partly cloudy - 12.9 986.7 6.0
02/11:00pm NW 12 16 - - - - 10 Partly cloudy - 12.7 987.2 6.0
02/10:30pm NW 16 20 - - - - 10 Partly cloudy - 12.9 987.9 5.8
02/10:00pm NNW 12 20 - - - - 10 Partly cloudy - 13.2 987.6 5.4
02/09:30pm NNW 11 19 - - - - 10 Partly cloudy - 12.7 988.0 5.4
02/09:00pm N 8 12 - - - - 10 Cloudy Showers 12.5 988.4 5.2
02/08:30pm NNW 10 14 - - - - 10 Partly cloudy - 12.5 987.9 5.2
02/08:00pm WNW 17 24 - - - - 9 Partly cloudy - 13.2 988.7 3.4
02/07:30pm WNW 17 22 - - - - 10 Partly cloudy - 13.6 988.1 1.6
02/07:07pm W 24 30 - - - - 10 Partly cloudy - 13.6 987.8 1.2
02/07:00pm W 25 31 - - - - 7 Partly cloudy - 14.0 987.5 0.8
02/06:53pm W 27 33 - - - - 5 Partly cloudy - 14.1 987.3 0.6
02/06:36pm WNW 18 31 - - - - 10 Partly cloudy - 16.4 986.6 0.0
02/06:34pm NW 16 28 - - - - 10 Partly cloudy - 18.1 986.5 0.0
02/06:30pm NW 16 21 - - - - 10 Partly cloudy - 18.2 986.1 0.0
02/06:00pm NW 8 12 - - - - 10 Cloudy - 18.6 986.2 0.0
02/05:30pm NW 15 19 - - - - 10 Partly cloudy - 18.9 986.7 0.0
02/05:00pm NW 17 24 - - - - 10 Partly cloudy - 18.7 987.0 0.0
02/04:30pm NW 18 22 - - - - 10 Partly cloudy - 18.7 987.6 0.0
02/04:00pm NW 17 22 - - - - 10 Partly cloudy - 19.0 988.1 0.0
02/03:30pm NW 18 25 - - - - 10 Partly cloudy - 18.6 988.6 0.0
02/03:00pm NNW 16 29 - - - - 10 Cloudy - 19.0 988.8 0.0
02/02:38pm NNW 17 28 - - - - 10 Partly cloudy - 19.2 989.2 0.0
02/02:30pm NNW 16 22 - - - - 10 Partly cloudy - 19.1 989.2 0.0
02/02:00pm NNW 17 23 - - - - 10 Partly cloudy - 18.9 989.9 0.0
02/01:30pm NNW 17 23 - - - - 10 Partly cloudy - 19.0 990.6 0.0
02/01:01pm NNW 17 27 - - - - 10 Partly cloudy - 18.8 991.1 0.0
02/01:00pm NNW 18 27 - - - - 10 Partly cloudy - 18.7 991.1 0.0
02/12:49pm NNW 19 29 - - - - 10 Partly cloudy - 18.7 991.3 0.0
02/12:30pm NNW 16 25 - - - - 10 Partly cloudy - 18.9 991.6 0.0
02/12:01pm NNW 15 26 - - - - 10 Partly cloudy - 18.1 992.4 0.0
02/12:00pm NNW 15 22 - - - - 10 Cloudy - 17.9 992.4 0.0
02/11:49am NNW 16 26 - - - - 10 Partly cloudy - 19.0 992.6 0.0
02/11:30am NW 19 26 - - - - 10 Partly cloudy - 18.4 992.9 0.0
02/11:00am NW 19 26 - - - - 10 Partly cloudy - 18.7 993.4 0.0
02/10:39am NNW 17 28 - - - - 10 Partly cloudy - 18.8 993.7 0.0
02/10:30am NNW 17 24 - - - - 10 Partly cloudy - 18.4 993.9 0.0
02/10:13am NNW 17 27 - - - - 10 Partly cloudy - 18.1 994.1 0.0
02/10:00am NNW 16 23 - - - - 10 Partly cloudy - 17.4 994.3 0.0
02/09:30am NNW 9 14 - - - - 10 Cloudy - 16.6 994.8 0.0
02/09:00am NNW 13 19 - - - - 10 Mostly cloudy - 16.0 995.2 0.0
02/08:30am NW 15 20 - - - - 10 Partly cloudy - 16.1 995.6 0.0
02/08:00am NW 12 16 - - - - 10 Partly cloudy - 15.6 995.8 0.0
02/07:30am NW 14 19 - - - - 10 Partly cloudy - 15.5 995.9 0.0
02/07:00am NW 16 21 - - - - 10 Partly cloudy - 15.8 996.2 0.0
02/06:30am WNW 14 18 - - - - 10 Partly cloudy - 15.6 996.3 0.0
02/06:00am NW 13 18 - - - - 10 Cloudy - 15.5 996.6 0.0
02/05:30am WNW 11 15 - - - - 10 Partly cloudy - 15.3 996.9 0.0
02/05:00am W 11 17 - - - - 10 Partly cloudy - 14.8 997.1 0.0
02/04:30am W 12 17 - - - - 10 Partly cloudy - 15.1 997.4 0.0
02/04:00am WNW 10 14 - - - - 10 Partly cloudy - 15.0 997.8 0.0
02/03:30am W 16 20 - - - - 10 Partly cloudy - 15.4 998.2 0.0
02/03:00am W 15 20 - - - - 10 Cloudy - 15.7 998.7 0.0
02/02:30am W 12 16 - - - - 10 Partly cloudy - 15.6 999.2 0.0
02/02:00am WNW 12 16 - - - - 10 Partly cloudy - 15.5 999.4 0.0
02/01:30am WNW 12 15 - - - - 10 Partly cloudy - 15.8 999.9 0.0
02/01:00am W 12 16 - - - - 10 Partly cloudy - 16.2 1000.5 0.0
02/12:30am W 15 19 - - - - 10 Partly cloudy - 16.4 1000.9 0.0
02/12:00am W 14 18 - - - - 10 Cloudy - 16.5 1001.3 0.0
 
Date/Time
EDT
Wind Sea
Height
m
Swell Vis
km
Cloud Weather Temp
°C
Press
MSL
hPa
Rain since
9am
mm
Dir  Spd
kts
Gust
kts
Height
m
Period
s
Dir
01/11:30pm W 15 18 - - - - 10 Partly cloudy - 16.5 1001.6 0.0
01/11:00pm W 16 22 - - - - 10 Partly cloudy - 16.5 1001.8 0.0
01/10:30pm W 16 20 - - - - 10 Partly cloudy - 16.5 1002.4 0.0
01/10:00pm W 13 18 - - - - 10 Partly cloudy - 16.6 1002.8 0.0
01/09:30pm W 17 23 - - - - 10 - - 16.9 1002.6 0.0
01/09:00pm W 17 22 - - - - 10 Mostly clear - 17.0 1002.4 0.0
01/08:30pm W 19 23 - - - - 10 Partly cloudy - 17.2 1002.0 0.0
01/08:00pm W 19 24 - - - - 10 - - 17.4 1001.6 0.0
01/07:30pm W 19 26 - - - - 10 Partly cloudy - 18.1 1001.4 0.0
01/07:00pm W 20 26 - - - - 10 - - 18.8 1001.2 0.0
01/06:30pm W 23 29 - - - - 10 - - 19.0 1001.0 0.0
01/06:00pm W 25 32 - - - - 10 - - 18.7 1000.8 0.0
01/05:30pm W 25 32 - - - - 10 - - 18.8 1000.8 0.0
01/05:00pm WSW 25 32 - - - - 10 - - 19.9 1000.7 0.0
01/04:30pm WSW 26 31 - - - - 10 Partly cloudy - 20.1 1000.9 0.0
01/04:00pm W 23 29 - - - - 10 - - 19.7 1000.9 0.0
01/03:30pm W 24 29 - - - - 10 Partly cloudy - 20.1 1001.0 0.0
01/03:00pm W 22 27 - - - - 10 Cloudy - 20.4 1001.0 0.0
01/02:30pm W 23 28 - - - - 10 Partly cloudy - 20.0 1001.1 0.0
01/02:00pm W 22 28 - - - - 10 Partly cloudy - 20.9 1001.0 0.0
01/01:30pm WNW 18 23 - - - - 10 Partly cloudy - 21.3 1000.9 0.0
01/01:00pm WNW 19 25 - - - - 10 Partly cloudy - 20.3 1001.1 0.0
01/12:30pm WNW 19 26 - - - - 10 Partly cloudy - 19.9 1001.8 0.0
01/12:00pm WNW 19 25 - - - - 10 Cloudy - 21.0 1001.7 0.0
01/11:30am WNW 18 24 - - - - 10 Partly cloudy - 20.9 1001.8 0.0
01/11:00am W 19 27 - - - - 10 Partly cloudy - 20.7 1002.0 0.0
01/10:30am W 19 25 - - - - 10 Partly cloudy - 20.7 1002.1 0.0
01/10:00am WNW 19 27 - - - - 10 Partly cloudy - 19.6 1002.2 0.0
01/09:30am WNW 18 23 - - - - 10 Partly cloudy - 20.4 1002.4 0.0
01/09:00am WNW 18 26 - - - - 10 Mostly cloudy - 19.0 1002.4 0.0
01/08:30am W 18 22 - - - - 10 - - 19.6 1002.3 0.0
01/08:00am W 15 20 - - - - 10 - - 18.9 1002.4 0.0
01/07:30am W 18 22 - - - - 10 - - 18.2 1002.5 0.0
01/07:00am W 17 23 - - - - 10 Partly cloudy - 17.8 1002.4 0.0
01/06:30am W 17 22 - - - - 10 Partly cloudy - 17.5 1002.5 0.0
01/06:00am W 17 21 - - - - 10 Cloudy - 17.9 1002.4 0.0
01/05:30am WSW 20 24 - - - - 10 Cloudy - 17.9 1002.4 0.0
01/05:00am W 17 23 - - - - 10 Partly cloudy - 18.0 1002.4 0.0
01/04:30am WNW 15 19 - - - - 10 Partly cloudy - 17.6 1002.7 0.0
01/04:00am W 18 23 - - - - 10 Partly cloudy - 17.8 1002.8 0.0
01/03:30am W 13 16 - - - - 10 Cloudy - 17.8 1002.9 0.0
01/03:00am W 16 20 - - - - 10 Mostly cloudy - 17.9 1003.3 0.0
01/02:30am W 15 19 - - - - 10 Partly cloudy - 18.0 1003.6 0.0
01/02:00am W 14 19 - - - - 10 Partly cloudy - 17.9 1003.7 0.0
01/01:30am WNW 15 19 - - - - 10 Partly cloudy - 17.6 1004.0 0.0
01/01:00am W 14 18 - - - - 10 Partly cloudy - 17.9 1004.2 0.0
01/12:30am W 16 19 - - - - 10 Partly cloudy - 18.0 1004.6 0.0
01/12:00am W 14 19 - - - - 10 Cloudy - 18.1 1004.7 0.0
 
Date/Time
EDT
Wind Sea
Height
m
Swell Vis
km
Cloud Weather Temp
°C
Press
MSL
hPa
Rain since
9am
mm
Dir  Spd
kts
Gust
kts
Height
m
Period
s
Dir
31/11:30pm WNW 14 19 - - - - 10 Cloudy - 18.0 1004.9 0.0
31/11:00pm W 14 20 - - - - 10 Cloudy - 18.0 1005.3 0.0
31/10:30pm W 14 20 - - - - 10 Partly cloudy - 18.0 1005.5 0.0
31/10:00pm W 17 21 - - - - 10 Partly cloudy - 17.9 1005.7 0.0
31/09:30pm W 15 19 - - - - 10 Partly cloudy - 18.0 1005.5 0.0
31/09:00pm W 14 17 - - - - 10 Partly cloudy - 18.0 1005.3 0.0
31/08:30pm W 14 17 - - - - 10 Partly cloudy - 18.2 1005.2 0.0
31/08:00pm W 13 16 - - - - 10 Partly cloudy - 18.5 1005.2 0.0
31/07:30pm W 14 18 - - - - 10 Partly cloudy - 18.7 1005.1 0.0
31/07:00pm W 15 18 - - - - 10 Partly cloudy - 19.7 1005.2 0.0
31/06:30pm W 15 18 - - - - 10 - - 20.0 1005.2 0.0
31/06:00pm W 14 17 - - - - 10 - - 19.9 1005.2 0.0
31/05:30pm W 14 17 - - - - 10 - - 20.2 1005.5 0.0
31/05:00pm W 14 18 - - - - 10 - - 20.8 1005.6 0.0
31/04:30pm W 14 17 - - - - 10 Partly cloudy - 20.6 1005.9 0.0
31/04:00pm W 12 15 - - - - 10 Partly cloudy - 21.9 1006.1 0.0
31/03:30pm WSW 13 17 - - - - 10 Partly cloudy - 20.8 1006.3 0.0
31/03:00pm WSW 12 15 - - - - 10 Partly cloudy - 21.3 1006.4 0.0
31/02:30pm WSW 12 16 - - - - 10 Partly cloudy - 21.2 1006.7 0.0
31/02:00pm W 11 15 - - - - 10 Partly cloudy - 21.3 1006.9 0.0
31/01:30pm WSW 10 16 - - - - 10 Partly cloudy - 21.3 1007.0 0.0
31/01:00pm W 11 15 - - - - 10 - - 20.8 1007.3 0.0
31/12:30pm W 12 16 - - - - 10 Partly cloudy - 20.2 1007.5 0.0
31/12:00pm W 13 17 - - - - 10 Cloudy - 20.1 1007.7 0.0
31/11:30am WNW 11 16 - - - - 10 Cloudy - 19.7 1007.8 0.0
31/11:00am WNW 11 16 - - - - 10 Partly cloudy - 19.6 1008.0 0.0
31/10:30am WNW 11 15 - - - - 10 Partly cloudy - 20.1 1008.1 0.0
31/10:00am WNW 13 16 - - - - 10 Partly cloudy - 19.7 1008.3 0.0
31/09:30am WNW 8 10 - - - - 10 Partly cloudy - 19.2 1008.3 0.0
31/09:00am NW 6 9 - - - - 10 Mostly cloudy - 19.4 1008.5 0.0
31/08:30am ENE 1 3 - - - - 10 Partly cloudy - 17.8 1008.4 0.0
31/08:00am ENE 5 5 - - - - 10 Partly cloudy - 15.1 1008.4 0.0
31/07:30am NE 7 8 - - - - 10 - - 12.7 1008.1 0.0
31/07:00am ENE 7 8 - - - - 10 - - 10.9 1008.2 0.0
31/06:30am NE 7 8 - - - - 10 Partly cloudy - 9.9 1008.4 0.0
31/06:00am ENE 8 10 - - - - 10 - - 9.2 1008.3 0.0
31/05:30am ENE 7 9 - - - - 10 - - 9.8 1008.3 0.0
31/05:00am ENE 7 8 - - - - 10 - - 10.1 1008.4 0.0
31/04:30am ENE 6 7 - - - - 10 - - 10.1 1008.5 0.0
31/04:00am ENE 7 8 - - - - 10 - - 10.3 1008.5 0.0
31/03:30am NE 6 7 - - - - 10 - - 10.9 1008.7 0.0
31/03:00am NE 8 9 - - - - 10 - - 11.6 1008.9 0.0
31/02:36am NE 6 7 - - - - 10 Partly cloudy - 11.9 1009.2 0.0
31/02:30am NE 7 7 - - - - 10 Partly cloudy - 12.1 1009.2 0.0
31/02:21am NE 7 7 - - - - 10 Partly cloudy - 12.3 1009.3 0.0
31/02:19am ENE 6 7 - - - - 10 Partly cloudy - 12.4 1009.4 0.0
31/02:07am NE 6 7 - - - - 10 Partly cloudy - 12.4 1009.5 0.0
31/02:00am NE 6 7 - - - - 10 Partly cloudy - 12.7 1009.6 0.0
31/01:30am ENE 3 4 - - - - 10 - - 12.7 1009.9 0.0

Other formats

Comma delimited format used in spreadsheet applications
http://www.bom.gov.au/fwo/IDT60701/IDT60701.94980.axf

JavaScript Object Notation format (JSON) in row-major order
http://www.bom.gov.au/fwo/IDT60701/IDT60701.94980.json

Data quality

Most of these data are generated automatically and are frequently updated. Quality checks on data are not normally performed. It is possible for incorrect values to appear. Refer to information at About Latest Weather Observations and please check the disclaimer before using these data.